Share

Damanhour, Egypt

Alexandria International (HEAX) Výška 23 ft | 31.18 °N, 29.95 °E | Change Station

Current weather conditions updated 1 hour ago

Clear
Jasno
64 °F
Pocit jako 64 °F
S
10
Vítr proměnlivý Vítr od severní
Východ slunce 5:25 AM
Západ slunce 6:29 PM
Měsíc Ubývající měsíc

Dnes má být podle předpovědi mnohem tepleji než včera.

Tlak 30.01 inčů
Viditelnost -9999.0 mílí
Zataženo
Rosný bod 54 °F
Vlhkost 68%
Dešťové srážky 0.00 inčů
Sněhová pokrývka Není k dispozici
UV záření Není k dispozici
Pyl Není k dispozici
Kvalita ovzduší Není k dispozici
Flu Activity Není k dispozici
METAR HEAX 192100Z 01009KT CAVOK 18/12 Q1016 NOSIG

More Conditions Fewer Conditions

Tlak 30.01 inčů
Viditelnost -9999.0 mílí
Zataženo
Rosný bod 54 °F
Vlhkost 68%
Dešťové srážky 0.00 inčů
Sněhová pokrývka Není k dispozici
UV záření Není k dispozici
Pyl Není k dispozici
Kvalita ovzduší Není k dispozici
Flu Activity Není k dispozici
METAR HEAX 192100Z 01009KT CAVOK 18/12 Q1016 NOSIG

More Conditions Fewer Conditions

10-Day Weather Forecast

Almanac

Astronomie

Apr. 20, 2014 Východ Západ
Skutečný čas 05:25 EET 18:29 EET
Občanský soumrak 05:00 EET 18:54 EET
Námořní soumrak 04:30 EET 19:24 EET
Astronomický soumrak 03:59 EET 19:55 EET
Měsíc 23:37 EET (4/20) 09:32 EET (4/20)
Délka denního světla 13h 54m
Délka dne
13h 04m
Tomorrow will be 1m 44s longer.
Ubývající měsíc, 76% of the Moon is Illuminated
Dub 19
Ubývající měsíc
Dub 22
Ubývající
Dub 29
Nov
Kvě 6
První čtvrť
Kvě 14
Úplněk

Včerejší extrémy

Nejvyšší hodnoty ve státě Nejnižší hodnoty ve státě

Community

  • Happy Easter WU friends!!!!
    Happy Easter WU friends!!!!
  • Skirting the Horizon
    Skirting the Horizon
  • Piriapolis
    Piriapolis
  • A Glorious Morning
    A Glorious Morning
  • Tender Rays Of Hope
    Tender Rays Of Hope

WunderPhotos

Upload Photos

1,702,921 snímků staženo!

WunderBlogs® & News

Nearby

Výška sněhu

Not available.

Pobřežní teplota vody

Lokalita Teplota
Stanice nic nehlásí

Seizmická činnost

Město Distance Mag. Čas & datum
Žádné zemětřesení v okolí nebylo hlášeno
Minimální zobrazený rozsah je 2.5.

Poblíž povětrnostní stanice

There are no personal weather stations in this area.

What do you think?

We're not finished. Please let us know what you like, what you don't like, and what you are still missing.